Time;durP1;ratioP1;P1;durP2;ratioP2;P2;SDS_P1;SDS_P2;PMS_P1;PMS_P2;Temp;Humidity;BMP_temperature;BMP_pressure;BME280_temperature;BME280_humidity;BME280_pressure;Samples;Min_cycle;Max_cycle;Signal;HPM_P1;HPM_P2
2023/08/13 00:00:16;;;;;;;11.43;5.03;;;;;;;19.07;100.00;93092.31;4790891;30;20551;-82
2023/08/13 00:02:44;;;;;;;8.52;5.10;;;;;;;19.04;100.00;93093.75;4788094;29;20059;-82
2023/08/13 00:05:10;;;;;;;7.55;5.28;;;;;;;19.04;100.00;93092.97;4788438;29;20039;-82
2023/08/13 00:07:36;;;;;;;9.93;5.22;;;;;;;19.01;100.00;93097.06;4790353;29;20050;-81
2023/08/13 00:10:02;;;;;;;8.63;5.30;;;;;;;19.02;100.00;93097.81;4789480;30;20040;-82
2023/08/13 00:12:28;;;;;;;8.63;5.30;;;;;;;19.00;100.00;93097.38;4789616;29;20031;-80
2023/08/13 00:14:54;;;;;;;7.63;5.30;;;;;;;19.01;100.00;93098.94;4788602;29;20039;-82
2023/08/13 00:17:19;;;;;;;8.05;5.10;;;;;;;19.00;100.00;93103.44;4786838;29;20055;-82
2023/08/13 00:19:45;;;;;;;8.85;5.03;;;;;;;18.98;100.00;93099.56;4790174;29;20073;-82
2023/08/13 00:22:10;;;;;;;9.65;4.95;;;;;;;18.96;100.00;93094.59;4790617;30;20400;-83
2023/08/13 00:24:36;;;;;;;7.97;5.28;;;;;;;18.95;100.00;93097.56;4789275;29;20087;-82
2023/08/13 00:27:02;;;;;;;7.38;4.90;;;;;;;18.92;100.00;93097.13;4789225;29;20084;-82
2023/08/13 00:29:27;;;;;;;11.85;5.30;;;;;;;18.92;100.00;93096.34;4774295;30;20121;-82
2023/08/13 00:31:55;;;;;;;6.50;5.00;;;;;;;18.90;100.00;93099.31;4789102;30;20492;-82
2023/08/13 00:34:23;;;;;;;11.20;5.70;;;;;;;18.88;100.00;93085.59;4792832;29;20031;-83
2023/08/13 00:36:49;;;;;;;8.70;5.30;;;;;;;18.89;100.00;93091.66;4788324;29;20051;-82
2023/08/13 00:39:14;;;;;;;7.65;5.15;;;;;;;18.87;100.00;93099.97;4790022;29;20046;-82
2023/08/13 00:41:40;;;;;;;6.50;5.13;;;;;;;18.86;100.00;93092.31;4789703;29;20528;-82
2023/08/13 00:44:06;;;;;;;7.03;4.85;;;;;;;18.84;100.00;93089.97;4788707;29;20098;-82
2023/08/13 00:46:33;;;;;;;6.85;5.00;;;;;;;18.84;100.00;93097.16;4789050;29;20526;-82
2023/08/13 00:48:59;;;;;;;8.55;5.45;;;;;;;18.80;100.00;93094.41;4785951;29;20054;-82
2023/08/13 00:51:26;;;;;;;9.05;5.47;;;;;;;18.78;100.00;93104.56;4787504;29;20047;-82
2023/08/13 00:53:53;;;;;;;7.97;5.20;;;;;;;18.76;100.00;93101.41;4788543;30;20142;-82
2023/08/13 00:56:19;;;;;;;8.45;5.50;;;;;;;18.77;100.00;93100.34;4786592;30;20035;-82
2023/08/13 00:58:45;;;;;;;7.65;5.32;;;;;;;18.71;100.00;93104.22;4802302;29;20044;-82
2023/08/13 01:01:12;;;;;;;9.80;5.68;;;;;;;18.74;100.00;93106.25;4773620;30;20518;-83
2023/08/13 01:03:38;;;;;;;10.13;6.10;;;;;;;18.72;100.00;93100.50;4789680;29;20495;-82
2023/08/13 01:06:10;;;;;;;10.80;5.25;;;;;;;18.69;100.00;93106.44;4788111;30;20051;-82
2023/08/13 01:09:00;;;;;;;13.40;5.55;;;;;;;18.67;100.00;93106.75;4787758;29;20035;-82
2023/08/13 01:11:50;;;;;;;10.45;5.47;;;;;;;18.66;100.00;93102.53;4780559;30;20035;-82
2023/08/13 01:14:22;;;;;;;7.38;5.32;;;;;;;18.67;100.00;93100.69;4789268;29;20039;-82
2023/08/13 01:16:48;;;;;;;7.65;5.97;;;;;;;18.66;100.00;93104.44;4788704;30;20072;-82
2023/08/13 01:19:14;;;;;;;8.68;5.72;;;;;;;18.64;100.00;93101.31;4787816;30;20047;-82
2023/08/13 01:21:40;;;;;;;8.57;5.75;;;;;;;18.64;100.00;93101.31;4789364;30;20526;-82
2023/08/13 01:24:06;;;;;;;9.40;5.45;;;;;;;18.61;100.00;93096.66;4788557;30;20039;-82
2023/08/13 01:27:15;;;;;;;8.98;5.57;;;;;;;18.57;100.00;93093.88;4789161;29;20045;-82
2023/08/13 01:29:49;;;;;;;10.43;5.70;;;;;;;18.57;100.00;93106.34;4734864;30;20047;-82
2023/08/13 01:32:18;;;;;;;12.50;5.60;;;;;;;18.52;100.00;93094.81;4750701;30;20040;-82
2023/08/13 01:34:45;;;;;;;7.72;5.93;;;;;;;18.55;100.00;93092.63;4763368;30;20049;-81
2023/08/13 01:37:11;;;;;;;10.55;6.05;;;;;;;18.56;100.00;93094.19;4788758;29;20055;-82
2023/08/13 01:39:37;;;;;;;8.95;5.63;;;;;;;18.54;100.00;93091.88;4789614;29;20070;-82
2023/08/13 01:42:04;;;;;;;8.93;6.22;;;;;;;18.52;100.00;93105.44;4785946;29;20067;-82
2023/08/13 01:44:29;;;;;;;7.97;5.80;;;;;;;18.50;100.00;93102.31;4787807;29;20035;-81
2023/08/13 01:46:55;;;;;;;9.90;5.97;;;;;;;18.50;100.00;93098.91;4789332;29;20502;-82
2023/08/13 01:49:21;;;;;;;10.13;6.07;;;;;;;18.49;100.00;93095.47;4803239;29;20035;-82
2023/08/13 01:51:47;;;;;;;10.75;6.90;;;;;;;18.47;100.00;93105.63;4788745;29;20046;-82
2023/08/13 01:54:12;;;;;;;12.13;6.32;;;;;;;18.48;100.00;93093.13;4789981;29;20042;-82
2023/08/13 01:56:38;;;;;;;10.23;6.88;;;;;;;18.44;100.00;93100.97;4789607;29;20039;-82
2023/08/13 01:59:04;;;;;;;10.18;6.85;;;;;;;18.43;100.00;93094.09;4788826;29;20111;-82
2023/08/13 02:01:29;;;;;;;10.18;7.18;;;;;;;18.40;100.00;93096.63;4804936;29;20075;-82
2023/08/13 02:03:55;;;;;;;9.52;6.63;;;;;;;18.37;100.00;93092.72;4787804;29;20513;-81
2023/08/13 02:06:20;;;;;;;9.93;7.07;;;;;;;18.34;100.00;93093.38;4792030;29;20047;-80
2023/08/13 02:08:46;;;;;;;10.18;8.00;;;;;;;18.34;100.00;93093.38;4791414;29;20039;-81
2023/08/13 02:11:11;;;;;;;9.90;7.00;;;;;;;18.33;100.00;93085.72;4791196;30;20046;-82
2023/08/13 02:13:37;;;;;;;10.43;7.40;;;;;;;18.33;100.00;93083.06;4776529;30;20258;-82
2023/08/13 02:16:04;;;;;;;9.32;7.45;;;;;;;18.25;100.00;93089.97;4791430;30;20051;-82
2023/08/13 02:18:30;;;;;;;8.98;6.82;;;;;;;18.24;100.00;93085.78;4791274;29;20055;-82
2023/08/13 02:20:55;;;;;;;11.07;7.38;;;;;;;18.22;100.00;93086.09;4776103;30;20529;-82
2023/08/13 02:23:21;;;;;;;8.52;6.35;;;;;;;18.26;100.00;93088.88;4794581;29;20057;-82
2023/08/13 02:25:47;;;;;;;11.50;6.72;;;;;;;18.23;100.00;93087.63;4790090;29;20047;-81
2023/08/13 02:28:13;;;;;;;13.32;6.55;;;;;;;18.23;100.00;93082.34;4791155;29;20043;-82
2023/08/13 02:30:38;;;;;;;12.85;7.10;;;;;;;18.23;100.00;93089.53;4790493;29;20319;-81
2023/08/13 02:33:04;;;;;;;9.88;6.80;;;;;;;18.17;100.00;93080.19;4781465;30;20035;-81
2023/08/13 02:35:30;;;;;;;10.13;7.07;;;;;;;18.15;100.00;93080.53;4789359;29;20047;-81
2023/08/13 02:37:55;;;;;;;9.38;7.32;;;;;;;18.17;100.00;93083.63;4791225;29;20058;-82
2023/08/13 02:40:21;;;;;;;11.35;7.63;;;;;;;18.16;100.00;93079.41;4775484;30;20043;-82
2023/08/13 02:42:47;;;;;;;11.98;7.95;;;;;;;18.12;100.00;93075.84;4790740;29;20078;-82
2023/08/13 02:45:12;;;;;;;11.27;7.90;;;;;;;18.08;100.00;93069.63;4790707;30;20035;-82
2023/08/13 02:47:38;;;;;;;10.48;8.18;;;;;;;18.03;100.00;93069.81;4790219;29;20023;-82
2023/08/13 02:50:04;;;;;;;12.80;8.38;;;;;;;18.01;100.00;93072.78;4791681;29;20047;-82
2023/08/13 02:52:29;;;;;;;10.98;8.27;;;;;;;17.98;100.00;93072.63;4775251;30;20039;-82
2023/08/13 02:54:55;;;;;;;11.88;8.55;;;;;;;17.97;100.00;93069.22;4792097;30;20369;-82
2023/08/13 02:57:21;;;;;;;13.90;8.00;;;;;;;17.95;100.00;93060.81;4806061;29;20077;-82
2023/08/13 02:59:46;;;;;;;11.73;8.52;;;;;;;17.95;100.00;93068.75;4791079;29;20043;-82
2023/08/13 03:02:12;;;;;;;10.95;8.02;;;;;;;17.93;100.00;93062.22;4773166;30;20074;-82
2023/08/13 03:04:38;;;;;;;11.50;8.18;;;;;;;17.92;100.00;93063.31;4790115;29;20040;-82
2023/08/13 03:07:03;;;;;;;11.77;8.32;;;;;;;17.94;100.00;93069.06;4802678;29;20036;-82
2023/08/13 03:09:29;;;;;;;13.27;8.48;;;;;;;17.93;100.00;93067.53;4788890;29;20054;-82
2023/08/13 03:11:56;;;;;;;10.43;7.70;;;;;;;17.91;100.00;93075.00;4790034;30;20042;-82
2023/08/13 03:14:21;;;;;;;12.73;8.43;;;;;;;17.91;100.00;93067.06;4791583;29;20039;-82
2023/08/13 03:16:48;;;;;;;13.73;8.15;;;;;;;17.92;100.00;93068.59;4787993;29;20857;-82
2023/08/13 03:19:14;;;;;;;11.88;8.32;;;;;;;17.88;100.00;93063.19;4791603;29;20051;-81
2023/08/13 03:21:42;;;;;;;12.05;9.13;;;;;;;17.86;100.00;93063.50;4789416;29;20040;-81
2023/08/13 03:24:08;;;;;;;13.25;8.25;;;;;;;17.87;100.00;93064.25;4786766;29;20462;-82
2023/08/13 03:26:33;;;;;;;13.07;8.68;;;;;;;17.84;100.00;93064.91;4791681;29;20039;-82
2023/08/13 03:28:59;;;;;;;12.18;8.73;;;;;;;17.81;100.00;93065.47;4789495;29;20426;-80
2023/08/13 03:31:25;;;;;;;12.45;9.02;;;;;;;17.83;100.00;93064.13;4789318;29;20035;-82
2023/08/13 03:33:56;;;;;;;12.85;8.20;;;;;;;17.84;100.00;93062.25;4805171;29;20464;-82
2023/08/13 03:36:23;;;;;;;11.20;8.77;;;;;;;17.79;100.00;93063.19;4790468;29;20092;-82
2023/08/13 03:38:48;;;;;;;11.02;8.25;;;;;;;17.74;100.00;93051.97;4789981;29;20039;-82
2023/08/13 03:41:15;;;;;;;10.13;8.38;;;;;;;17.71;100.00;93053.38;4790945;29;20476;-82
2023/08/13 03:43:40;;;;;;;12.40;8.65;;;;;;;17.67;100.00;93052.44;4791126;29;20039;-82
2023/08/13 03:46:06;;;;;;;12.98;8.40;;;;;;;17.65;100.00;93057.28;4790617;30;20113;-82
2023/08/13 03:48:32;;;;;;;16.30;8.45;;;;;;;17.63;100.00;93057.63;4791104;29;20099;-82
2023/08/13 03:51:04;;;;;;;11.48;8.50;;;;;;;17.62;100.00;93058.69;4788718;30;20054;-82
2023/08/13 03:53:30;;;;;;;9.82;7.32;;;;;;;17.63;100.00;93054.97;4789069;30;20495;-82
2023/08/13 03:55:56;;;;;;;10.23;7.78;;;;;;;17.64;100.00;93051.22;4789391;30;20031;-81
2023/08/13 03:58:23;;;;;;;11.80;8.18;;;;;;;17.68;100.00;93064.59;4789488;30;20551;-82
2023/08/13 04:00:49;;;;;;;10.18;7.70;;;;;;;17.67;100.00;93061.19;4789867;29;20043;-81
2023/08/13 04:03:14;;;;;;;13.43;7.85;;;;;;;17.66;100.00;93062.28;4790893;29;20096;-82
2023/08/13 04:05:40;;;;;;;12.63;8.75;;;;;;;17.62;100.00;93063.22;4789968;30;20035;-82
2023/08/13 04:08:06;;;;;;;14.23;9.10;;;;;;;17.58;100.00;93068.34;4790236;29;20040;-82
2023/08/13 04:10:32;;;;;;;12.85;8.57;;;;;;;17.58;100.00;93063.06;4790327;29;20067;-81
2023/08/13 04:13:00;;;;;;;11.80;8.35;;;;;;;17.57;100.00;93066.81;4789282;29;20043;-81
2023/08/13 04:15:27;;;;;;;10.52;7.72;;;;;;;17.55;100.00;93071.63;4790198;30;20039;-82
2023/08/13 04:17:53;;;;;;;14.05;8.85;;;;;;;17.54;100.00;93067.44;4789273;29;20587;-82
2023/08/13 04:20:20;;;;;;;11.98;7.82;;;;;;;17.56;100.00;93064.47;4774575;30;20047;-82
2023/08/13 04:22:45;;;;;;;11.05;8.02;;;;;;;17.57;100.00;93072.09;4788725;29;20040;-82
2023/08/13 04:25:11;;;;;;;13.50;7.88;;;;;;;17.58;100.00;93062.28;4790196;29;20046;-82
2023/08/13 04:27:37;;;;;;;12.60;8.15;;;;;;;17.61;100.00;93062.44;4789642;30;20131;-82
2023/08/13 04:30:05;;;;;;;9.82;8.00;;;;;;;17.61;100.00;93061.69;4773959;30;20062;-82
2023/08/13 04:32:31;;;;;;;11.82;8.20;;;;;;;17.65;100.00;93067.88;4787347;29;20035;-82
2023/08/13 04:34:58;;;;;;;9.75;7.25;;;;;;;17.65;100.00;93060.72;4791574;29;20155;-82
2023/08/13 04:37:24;;;;;;;13.23;7.82;;;;;;;17.65;100.00;93060.72;4776578;30;20051;-82
2023/08/13 04:39:50;;;;;;;13.68;7.95;;;;;;;17.67;100.00;93066.47;4789552;30;20051;-82
2023/08/13 04:42:17;;;;;;;11.65;8.23;;;;;;;17.65;100.00;93060.72;4789917;29;20043;-82
2023/08/13 04:44:42;;;;;;;11.40;7.82;;;;;;;17.69;100.00;93060.84;4786572;30;20036;-82
2023/08/13 04:47:08;;;;;;;10.25;7.22;;;;;;;17.73;100.00;93064.44;4801212;29;20054;-82
2023/08/13 04:49:34;;;;;;;11.02;7.65;;;;;;;17.76;100.00;93063.03;4801750;29;20039;-82
2023/08/13 04:52:00;;;;;;;12.65;8.10;;;;;;;17.80;100.00;93071.88;4802494;29;20035;-82
2023/08/13 04:54:25;;;;;;;12.88;7.90;;;;;;;17.87;100.00;93066.91;4789329;29;20047;-82
2023/08/13 04:56:51;;;;;;;10.27;7.82;;;;;;;17.91;100.00;93069.72;4789275;30;20039;-81
2023/08/13 04:59:17;;;;;;;11.80;7.95;;;;;;;17.96;100.00;93066.88;4789509;30;20504;-80
2023/08/13 05:01:42;;;;;;;10.80;7.70;;;;;;;18.01;100.00;93064.03;4785889;30;20107;-80
2023/08/13 05:04:08;;;;;;;10.93;7.47;;;;;;;18.05;100.00;93068.38;4789072;30;20475;-81
2023/08/13 05:06:36;;;;;;;10.70;8.18;;;;;;;18.15;100.00;93069.13;4789176;29;20412;-81
2023/08/13 05:09:01;;;;;;;12.57;8.30;;;;;;;18.22;100.00;93069.44;4788277;30;20046;-80
2023/08/13 05:11:27;;;;;;;11.07;7.97;;;;;;;18.27;100.00;93072.66;4786816;29;20498;-81
2023/08/13 05:13:52;;;;;;;10.30;7.72;;;;;;;18.35;100.00;93068.44;4785404;30;20050;-81
2023/08/13 05:16:20;;;;;;;9.93;7.78;;;;;;;18.44;100.00;93066.50;4803219;29;20046;-81
2023/08/13 05:18:47;;;;;;;11.20;7.93;;;;;;;18.49;100.00;93063.66;4772529;30;20081;-81
2023/08/13 05:21:15;;;;;;;12.52;7.93;;;;;;;18.56;100.00;93073.00;4773570;30;20511;-81
2023/08/13 05:23:41;;;;;;;12.50;8.57;;;;;;;18.64;100.00;93070.28;4802982;29;20054;-81
2023/08/13 05:26:07;;;;;;;12.15;7.90;;;;;;;18.73;100.00;93070.22;4788047;29;20039;-81
2023/08/13 05:28:33;;;;;;;10.27;7.80;;;;;;;18.82;100.00;93070.19;4768741;30;20147;-81
2023/08/13 05:31:03;;;;;;;11.60;7.45;;;;;;;18.90;100.00;93077.31;4787714;30;20535;-81
2023/08/13 05:33:28;;;;;;;13.18;7.78;;;;;;;18.95;100.00;93073.69;4802119;29;20027;-81
2023/08/13 05:35:54;;;;;;;10.57;7.63;;;;;;;19.04;100.00;93077.06;4804295;29;20415;-82
2023/08/13 05:38:20;;;;;;;10.75;7.18;;;;;;;19.11;100.00;93077.31;4789242;29;20036;-81
2023/08/13 05:40:47;;;;;;;11.65;7.35;;;;;;;19.20;100.00;93085.97;4806884;29;20073;-81
2023/08/13 05:43:13;;;;;;;10.27;7.47;;;;;;;19.30;100.00;93077.63;4773609;30;20035;-81
2023/08/13 05:45:41;;;;;;;12.73;7.72;;;;;;;19.42;100.00;93084.09;4791143;30;20074;-81
2023/08/13 05:48:07;;;;;;;9.82;7.30;;;;;;;19.54;100.00;93084.13;4789265;29;20043;-81
2023/08/13 05:50:33;;;;;;;11.60;7.43;;;;;;;19.68;100.00;93087.28;4790011;29;20354;-81
2023/08/13 05:52:58;;;;;;;10.93;7.95;;;;;;;19.81;100.00;93097.94;4791231;29;20063;-81
2023/08/13 05:55:24;;;;;;;13.43;7.40;;;;;;;19.93;100.00;93085.47;4793519;29;20047;-80
2023/08/13 05:57:50;;;;;;;11.85;8.10;;;;;;;20.09;100.00;93088.28;4793054;29;20191;-81
2023/08/13 06:00:16;;;;;;;10.90;6.32;;;;;;;20.26;100.00;93092.59;4777107;30;20043;-81
2023/08/13 06:02:42;;;;;;;9.55;7.80;;;;;;;20.39;100.00;93080.09;4806112;29;20100;-80
2023/08/13 06:05:07;;;;;;;12.00;7.70;;;;;;;20.51;100.00;93087.28;4792220;29;20126;-81
2023/08/13 06:07:36;;;;;;;13.30;8.38;;;;;;;20.69;100.00;93093.16;4792384;29;20039;-82
2023/08/13 06:10:06;;;;;;;12.32;9.45;;;;;;;20.84;100.00;93094.38;4792427;29;20084;-82
2023/08/13 06:12:33;;;;;;;11.80;7.60;;;;;;;21.05;100.00;93088.91;4792861;29;20043;-82
2023/08/13 06:14:58;;;;;;;13.10;7.10;;;;;;;21.45;100.00;93088.16;4790537;29;20218;-82
2023/08/13 06:17:25;;;;;;;14.43;6.47;;;;;;;22.21;100.00;93096.97;4779082;30;20588;-80
2023/08/13 06:19:51;;;;;;;9.25;6.80;;;;;;;23.01;100.00;93087.78;4793596;29;20120;-82
2023/08/13 06:22:16;;;;;;;9.93;6.55;;;;;;;23.77;100.00;93087.38;4792309;30;20045;-82
2023/08/13 06:24:43;;;;;;;12.98;8.00;;;;;;;24.40;100.00;93086.16;4791215;29;20119;-82
2023/08/13 06:27:09;;;;;;;12.65;7.88;;;;;;;25.11;100.00;93097.19;4785843;29;20181;-82
2023/08/13 06:29:34;;;;;;;11.63;7.78;;;;;;;25.77;100.00;93099.53;4798765;29;20122;-79
2023/08/13 06:32:00;;;;;;;15.95;8.10;;;;;;;26.33;100.00;93106.63;4790499;30;20039;-80
2023/08/13 06:34:26;;;;;;;13.07;8.25;;;;;;;26.80;100.00;93104.34;4790870;29;20031;-80
2023/08/13 06:36:53;;;;;;;10.95;7.25;;;;;;;27.30;100.00;93103.91;4789656;29;20502;-80
2023/08/13 06:39:21;;;;;;;12.07;7.65;;;;;;;27.25;100.00;93104.28;4788943;29;20100;-80
2023/08/13 06:41:47;;;;;;;17.60;9.00;;;;;;;27.38;100.00;93111.63;4789157;30;20042;-80
2023/08/13 06:44:21;;;;;;;14.52;7.30;;;;;;;27.40;100.00;93111.25;4789547;29;20031;-79
2023/08/13 06:46:47;;;;;;;12.35;7.63;;;;;;;27.04;100.00;93104.88;4788626;29;20173;-79
2023/08/13 06:49:13;;;;;;;14.90;7.85;;;;;;;26.58;100.00;93116.84;4786056;29;20054;-80
2023/08/13 06:51:39;;;;;;;11.10;7.95;;;;;;;25.99;100.00;93111.28;4792293;29;20050;-79
2023/08/13 06:54:06;;;;;;;12.55;8.32;;;;;;;25.41;100.00;93112.53;4789753;30;20039;-80
2023/08/13 06:56:32;;;;;;;10.68;7.90;;;;;;;24.92;100.00;93110.69;4788944;29;20039;-80
2023/08/13 06:58:58;;;;;;;14.95;8.52;;;;;;;24.68;100.00;93114.56;4788812;30;20049;-79
2023/08/13 07:01:24;;;;;;;13.80;7.75;;;;;;;24.75;100.00;93113.91;4787186;30;20039;-80
2023/08/13 07:03:49;;;;;;;11.05;7.97;;;;;;;24.30;100.00;93108.19;4790328;29;20045;-79
2023/08/13 07:06:15;;;;;;;12.05;7.80;;;;;;;24.15;100.00;93119.78;4791313;29;20525;-79
2023/08/13 07:08:40;;;;;;;12.85;7.63;;;;;;;24.22;100.00;93112.63;4792658;29;20027;-79
2023/08/13 07:11:06;;;;;;;15.27;8.15;;;;;;;24.20;100.00;93116.78;4790331;30;20100;-79
2023/08/13 07:13:31;;;;;;;11.02;7.72;;;;;;;24.25;100.00;93117.28;4788354;30;20039;-80
2023/08/13 07:15:57;;;;;;;9.60;7.68;;;;;;;24.09;100.00;93116.59;4787022;29;20503;-79
2023/08/13 07:18:23;;;;;;;13.05;7.63;;;;;;;23.85;100.00;93121.16;4788647;29;20078;-80
2023/08/13 07:20:48;;;;;;;15.20;8.15;;;;;;;24.03;100.00;93113.47;4790784;29;20507;-80
2023/08/13 07:23:14;;;;;;;11.95;7.88;;;;;;;24.72;100.00;93120.72;4787341;29;20039;-80
2023/08/13 07:25:40;;;;;;;11.82;8.00;;;;;;;24.97;100.00;93126.47;4789076;30;20050;-80
2023/08/13 07:28:08;;;;;;;11.68;7.63;;;;;;;25.19;100.00;93124.09;4789318;29;20039;-80
2023/08/13 07:30:34;;;;;;;11.35;8.00;;;;;;;24.86;100.00;93120.19;4790423;30;20074;-80
2023/08/13 07:33:00;;;;;;;9.88;7.65;;;;;;;24.18;100.00;93121.72;4789030;30;20035;-79
2023/08/13 07:35:26;;;;;;;12.38;8.32;;;;;;;23.72;100.00;93124.31;4788358;29;20130;-80
2023/08/13 07:37:52;;;;;;;10.73;8.05;;;;;;;23.70;100.00;93128.09;4790746;29;20039;-80
2023/08/13 07:40:18;;;;;;;13.68;8.32;;;;;;;23.63;100.00;93127.19;4788765;30;20122;-79
2023/08/13 07:42:44;;;;;;;10.77;7.63;;;;;;;23.67;100.00;93125.38;4798191;29;20507;-79
2023/08/13 07:45:10;;;;;;;11.50;7.78;;;;;;;23.72;100.00;93118.97;4785192;30;20054;-84
2023/08/13 07:47:36;;;;;;;16.10;7.97;;;;;;;24.02;100.00;93124.50;4790249;29;20042;-83
2023/08/13 07:50:04;;;;;;;10.80;7.20;;;;;;;24.48;100.00;93121.88;4790416;29;20035;-82
2023/08/13 07:52:34;;;;;;;12.15;8.02;;;;;;;24.36;100.00;93116.69;4787088;29;20518;-84
2023/08/13 07:55:00;;;;;;;10.48;7.47;;;;;;;24.17;100.00;93123.63;4790310;29;20079;-84
2023/08/13 07:57:26;;;;;;;12.82;7.45;;;;;;;24.16;100.00;93127.44;4788448;29;20050;-85
2023/08/13 07:59:51;;;;;;;17.02;7.93;;;;;;;24.18;100.00;93124.41;4787752;30;20121;-86
2023/08/13 08:02:17;;;;;;;12.20;7.68;;;;;;;24.14;100.00;93118.22;4785087;30;20552;-84
2023/08/13 08:04:44;;;;;;;11.90;8.55;;;;;;;24.04;100.00;93116.91;4781086;29;20051;-84
2023/08/13 08:07:10;;;;;;;14.27;7.88;;;;;;;24.05;100.00;93116.56;4784051;29;20077;-84
2023/08/13 08:09:36;;;;;;;11.82;7.97;;;;;;;24.17;100.00;93112.16;4784432;29;20070;-84
2023/08/13 08:12:02;;;;;;;11.20;7.53;;;;;;;24.53;100.00;93108.19;4785377;29;20503;-83
2023/08/13 08:14:27;;;;;;;12.18;8.18;;;;;;;24.41;100.00;93103.78;4784594;30;20045;-85
2023/08/13 08:16:57;;;;;;;12.57;7.88;;;;;;;24.09;100.00;93101.34;4788912;29;20140;-84
2023/08/13 08:19:24;;;;;;;15.38;7.65;;;;;;;23.94;100.00;93101.47;4775436;29;20047;-82
2023/08/13 08:21:49;;;;;;;12.63;8.20;;;;;;;23.74;100.00;93100.69;4786770;29;20573;-84
2023/08/13 08:24:15;;;;;;;15.98;7.95;;;;;;;24.02;100.00;93100.44;4790156;29;20118;-84
2023/08/13 08:26:40;;;;;;;13.23;8.23;;;;;;;24.27;100.00;93101.66;4787146;29;20031;-82
2023/08/13 08:29:06;;;;;;;14.70;8.60;;;;;;;24.40;100.00;93101.47;4788093;29;20035;-84
2023/08/13 08:31:32;;;;;;;12.45;8.45;;;;;;;24.45;100.00;93095.81;4786535;29;20031;-84
2023/08/13 08:33:57;;;;;;;16.15;8.82;;;;;;;24.67;100.00;93096.94;4781903;29;20052;-85
2023/08/13 08:36:24;;;;;;;10.85;7.47;;;;;;;24.82;100.00;93089.91;4786538;29;20035;-82
2023/08/13 08:38:50;;;;;;;13.07;8.80;;;;;;;24.70;100.00;93101.56;4787755;30;20043;-83
2023/08/13 08:41:15;;;;;;;11.43;7.68;;;;;;;24.78;100.00;93097.09;4790189;29;20441;-85
2023/08/13 08:43:43;;;;;;;13.00;7.68;;;;;;;24.51;100.00;93095.16;4788319;30;20046;-84
2023/08/13 08:46:13;;;;;;;12.07;8.43;;;;;;;24.95;100.00;93096.59;4789393;29;20041;-85
2023/08/13 08:48:39;;;;;;;13.55;8.02;;;;;;;24.59;100.00;93095.28;4790164;29;20044;-85
2023/08/13 08:51:07;;;;;;;16.15;8.60;;;;;;;24.59;100.00;93096.06;4786816;29;20035;-85
2023/08/13 08:53:34;;;;;;;18.58;9.25;;;;;;;24.50;100.00;93101.66;4789531;29;20042;-84
2023/08/13 08:56:00;;;;;;;13.07;8.23;;;;;;;24.75;100.00;93092.47;4776650;30;20039;-83
2023/08/13 08:58:27;;;;;;;11.48;8.60;;;;;;;24.63;100.00;93094.22;4788343;29;20046;-85
2023/08/13 09:00:59;;;;;;;13.50;8.00;;;;;;;24.55;100.00;93089.88;4789285;30;20059;-85
2023/08/13 09:03:26;;;;;;;12.95;9.30;;;;;;;24.56;100.00;93096.78;4791727;29;20054;-85
2023/08/13 09:05:52;;;;;;;15.02;8.10;;;;;;;24.82;100.00;93084.53;4789370;29;20065;-86
2023/08/13 09:08:19;;;;;;;12.82;8.88;;;;;;;24.73;100.00;93092.84;4775977;30;20038;-84
2023/08/13 09:10:45;;;;;;;14.30;7.60;;;;;;;24.84;100.00;93090.31;4796276;29;20031;-84
2023/08/13 09:13:10;;;;;;;11.32;8.10;;;;;;;24.78;100.00;93091.75;4794617;29;20071;-85
2023/08/13 09:15:49;;;;;;;12.07;9.02;;;;;;;24.90;100.00;93091.53;4788539;30;20066;-85
2023/08/13 09:18:15;;;;;;;12.13;8.02;;;;;;;25.25;100.00;93085.16;4794993;29;20126;-85
2023/08/13 09:20:47;;;;;;;12.60;7.93;;;;;;;25.08;100.00;93086.41;4796919;29;20031;-84
2023/08/13 09:23:21;;;;;;;13.65;8.82;;;;;;;24.94;100.00;93087.00;4793236;30;20565;-83
2023/08/13 09:25:55;;;;;;;12.38;8.38;;;;;;;24.91;100.00;93079.69;4795240;30;20058;-83
2023/08/13 09:28:21;;;;;;;13.20;7.57;;;;;;;25.14;100.00;93079.63;4792476;29;20390;-84
2023/08/13 09:30:47;;;;;;;14.77;8.25;;;;;;;25.17;100.00;93067.41;4793577;30;20135;-84
2023/08/13 09:33:15;;;;;;;10.95;8.70;;;;;;;25.21;100.00;93065.56;4791979;29;20070;-85
2023/08/13 09:35:42;;;;;;;16.58;8.38;;;;;;;25.37;100.00;93078.78;4793224;29;20093;-86
2023/08/13 09:38:08;;;;;;;10.68;7.72;;;;;;;25.43;100.00;93075.41;4793903;30;20047;-83
2023/08/13 09:40:34;;;;;;;15.70;7.97;;;;;;;25.51;100.00;93069.00;4795951;30;20047;-86
2023/08/13 09:43:06;;;;;;;13.80;7.97;;;;;;;25.58;100.00;93073.69;4778358;30;20396;-85
2023/08/13 09:45:33;;;;;;;12.27;8.07;;;;;;;25.66;100.00;93074.53;4794635;29;20072;-85
2023/08/13 09:48:03;;;;;;;13.02;8.00;;;;;;;25.82;100.00;93067.03;4793490;29;20100;-85
2023/08/13 09:50:34;;;;;;;11.10;7.82;;;;;;;25.66;100.00;93069.94;4803405;29;20491;-86
2023/08/13 09:53:01;;;;;;;13.95;7.63;;;;;;;25.86;100.00;93067.06;4793403;30;20039;-85
2023/08/13 09:55:31;;;;;;;10.93;7.97;;;;;;;25.95;100.00;93064.88;4792824;29;20481;-86
2023/08/13 09:58:00;;;;;;;13.02;8.57;;;;;;;25.95;100.00;93073.69;4791964;30;20365;-86
2023/08/13 10:00:27;;;;;;;15.48;9.52;;;;;;;25.67;100.00;93070.69;4793990;29;20043;-86
2023/08/13 10:02:52;;;;;;;14.32;8.73;;;;;;;25.79;100.00;93070.44;4792429;29;20039;-86
2023/08/13 10:05:19;;;;;;;13.18;8.70;;;;;;;25.91;100.00;93075.56;4795954;29;20128;-87
2023/08/13 10:07:45;;;;;;;11.65;8.45;;;;;;;25.92;100.00;93074.44;4792480;29;20047;-87
2023/08/13 10:10:10;;;;;;;18.60;10.05;;;;;;;25.62;100.00;93073.72;4791700;29;20043;-85
2023/08/13 10:12:38;;;;;;;12.80;8.70;;;;;;;25.95;100.00;93062.22;4792936;30;20403;-86
2023/08/13 10:15:04;;;;;;;14.38;8.93;;;;;;;25.87;100.00;93061.38;4792964;29;20035;-85
2023/08/13 10:17:32;;;;;;;13.25;8.82;;;;;;;25.75;100.00;93065.03;4792921;29;20055;-84
2023/08/13 10:19:59;;;;;;;15.25;9.98;;;;;;;25.90;100.00;93063.31;4790530;29;20099;-85
2023/08/13 10:22:34;;;;;;;13.30;9.05;;;;;;;25.98;100.00;93058.00;4789429;29;20394;-86
2023/08/13 10:25:00;;;;;;;15.77;8.70;;;;;;;26.10;100.00;93057.75;4792005;29;20451;-83
2023/08/13 10:27:27;;;;;;;18.20;10.70;;;;;;;26.38;100.00;93051.84;4790797;29;20130;-85
2023/08/13 10:30:12;;;;;;;13.50;8.75;;;;;;;26.22;100.00;93060.16;4786187;29;20043;-85
2023/08/13 10:32:48;;;;;;;12.25;9.23;;;;;;;26.20;100.00;93048.25;4775074;30;20035;-84
2023/08/13 10:35:40;;;;;;;12.45;9.15;;;;;;;26.31;100.00;93054.47;4772081;30;20040;-86
2023/08/13 10:38:09;;;;;;;18.80;9.60;;;;;;;26.37;100.00;93048.41;4785005;30;20327;-85
2023/08/13 10:40:36;;;;;;;16.40;9.40;;;;;;;26.45;100.00;93048.44;4802229;29;20578;-87
2023/08/13 10:43:05;;;;;;;20.30;9.13;;;;;;;26.56;100.00;93046.63;4791553;29;20086;-85
2023/08/13 10:45:34;;;;;;;15.05;9.90;;;;;;;26.36;100.00;93052.22;4772084;30;20119;-85
2023/08/13 10:48:01;;;;;;;12.90;9.68;;;;;;;26.35;100.00;93045.31;4787247;29;20042;-86
2023/08/13 10:50:35;;;;;;;16.92;9.23;;;;;;;26.41;100.00;93050.31;4771791;30;20042;-85
2023/08/13 10:53:09;;;;;;;18.23;10.10;;;;;;;26.64;100.00;93044.75;4787115;29;20046;-86
2023/08/13 10:55:41;;;;;;;13.68;9.50;;;;;;;26.62;100.00;93037.09;4782222;29;20096;-85
2023/08/13 10:58:08;;;;;;;10.98;8.70;;;;;;;26.90;100.00;93043.78;4793335;29;20082;-86
2023/08/13 17:50:35;;;;;;;23.02;12.52;;;;;;;25.03;100.00;92926.06;5080502;28;20389;-85
2023/08/13 17:53:01;;;;;;;21.92;12.45;;;;;;;24.92;100.00;92926.69;5070428;28;20291;-86
2023/08/13 17:55:27;;;;;;;17.10;13.05;;;;;;;24.86;100.00;92933.53;5051679;28;20545;-82
2023/08/13 17:57:54;;;;;;;23.20;12.60;;;;;;;24.78;100.00;92931.91;5057257;28;20073;-82
2023/08/13 18:00:19;;;;;;;18.92;13.10;;;;;;;24.75;100.00;92929.97;5043363;28;20088;-82
2023/08/13 18:02:47;;;;;;;24.85;12.25;;;;;;;24.67;100.00;92926.41;5061356;28;20048;-82
2023/08/13 18:05:14;;;;;;;20.75;13.00;;;;;;;24.65;100.00;92934.03;5060076;28;20372;-82
2023/08/13 18:07:39;;;;;;;20.20;12.73;;;;;;;24.58;100.00;92936.63;5060009;28;20037;-83